sensor_id;sensor_type;location;lat;lon;timestamp;temperature;humidity
34542;DHT22;20784;51.332;12.410;2023-08-06T00:00:06;18.10;99.90
34542;DHT22;20784;51.332;12.410;2023-08-06T00:02:32;18.00;99.90
34542;DHT22;20784;51.332;12.410;2023-08-06T00:05:00;18.00;99.90
34542;DHT22;20784;51.332;12.410;2023-08-06T00:07:25;18.00;99.90
34542;DHT22;20784;51.332;12.410;2023-08-06T00:09:51;17.90;99.90
34542;DHT22;20784;51.332;12.410;2023-08-06T00:12:16;17.80;99.90
34542;DHT22;20784;51.332;12.410;2023-08-06T00:14:42;17.80;99.90
34542;DHT22;20784;51.332;12.410;2023-08-06T00:17:08;17.80;99.90
34542;DHT22;20784;51.332;12.410;2023-08-06T00:19:33;17.90;99.90
34542;DHT22;20784;51.332;12.410;2023-08-06T00:21:59;17.90;99.90
34542;DHT22;20784;51.332;12.410;2023-08-06T00:24:25;17.90;99.90
34542;DHT22;20784;51.332;12.410;2023-08-06T00:26:50;17.80;99.90
34542;DHT22;20784;51.332;12.410;2023-08-06T00:29:16;17.80;99.90
34542;DHT22;20784;51.332;12.410;2023-08-06T00:31:42;17.90;99.90
34542;DHT22;20784;51.332;12.410;2023-08-06T00:34:07;17.90;99.90
34542;DHT22;20784;51.332;12.410;2023-08-06T00:36:33;17.80;99.90
34542;DHT22;20784;51.332;12.410;2023-08-06T00:39:01;17.80;99.90
34542;DHT22;20784;51.332;12.410;2023-08-06T00:41:27;17.70;99.90
34542;DHT22;20784;51.332;12.410;2023-08-06T00:43:56;17.70;99.90
34542;DHT22;20784;51.332;12.410;2023-08-06T00:46:21;17.70;99.90
34542;DHT22;20784;51.332;12.410;2023-08-06T00:48:47;17.70;99.90
34542;DHT22;20784;51.332;12.410;2023-08-06T00:51:13;17.70;99.90
34542;DHT22;20784;51.332;12.410;2023-08-06T00:53:39;17.70;99.90
34542;DHT22;20784;51.332;12.410;2023-08-06T00:56:06;17.60;99.90
34542;DHT22;20784;51.332;12.410;2023-08-06T00:58:32;17.70;99.90
34542;DHT22;20784;51.332;12.410;2023-08-06T01:00:59;17.60;99.90
34542;DHT22;20784;51.332;12.410;2023-08-06T01:03:24;17.60;99.90
34542;DHT22;20784;51.332;12.410;2023-08-06T01:05:50;17.60;99.90
34542;DHT22;20784;51.332;12.410;2023-08-06T01:08:44;17.50;99.90
34542;DHT22;20784;51.332;12.410;2023-08-06T01:11:24;17.60;99.90
34542;DHT22;20784;51.332;12.410;2023-08-06T01:14:18;17.50;99.90
34542;DHT22;20784;51.332;12.410;2023-08-06T01:16:49;17.50;99.90
34542;DHT22;20784;51.332;12.410;2023-08-06T01:19:17;17.60;99.90
34542;DHT22;20784;51.332;12.410;2023-08-06T01:21:46;17.60;99.90
34542;DHT22;20784;51.332;12.410;2023-08-06T01:24:12;17.50;99.90
34542;DHT22;20784;51.332;12.410;2023-08-06T01:26:44;17.50;99.90
34542;DHT22;20784;51.332;12.410;2023-08-06T01:31:51;17.50;99.90
34542;DHT22;20784;51.332;12.410;2023-08-06T01:34:23;17.50;99.90
34542;DHT22;20784;51.332;12.410;2023-08-06T01:36:52;17.50;99.90
34542;DHT22;20784;51.332;12.410;2023-08-06T01:39:18;17.50;99.90
34542;DHT22;20784;51.332;12.410;2023-08-06T01:41:47;17.60;99.90
34542;DHT22;20784;51.332;12.410;2023-08-06T01:44:13;17.50;99.90
34542;DHT22;20784;51.332;12.410;2023-08-06T01:46:39;17.40;99.90
34542;DHT22;20784;51.332;12.410;2023-08-06T01:49:04;17.40;99.90
34542;DHT22;20784;51.332;12.410;2023-08-06T01:51:30;17.40;99.90
34542;DHT22;20784;51.332;12.410;2023-08-06T01:53:55;17.40;99.90
34542;DHT22;20784;51.332;12.410;2023-08-06T01:56:21;17.30;99.90
34542;DHT22;20784;51.332;12.410;2023-08-06T01:58:46;17.40;99.90
34542;DHT22;20784;51.332;12.410;2023-08-06T02:01:12;17.40;99.90
34542;DHT22;20784;51.332;12.410;2023-08-06T02:03:38;17.30;99.90
34542;DHT22;20784;51.332;12.410;2023-08-06T02:06:03;17.40;99.90
34542;DHT22;20784;51.332;12.410;2023-08-06T02:08:29;17.40;99.90
34542;DHT22;20784;51.332;12.410;2023-08-06T02:10:54;17.40;99.90
34542;DHT22;20784;51.332;12.410;2023-08-06T02:13:20;17.40;99.90
34542;DHT22;20784;51.332;12.410;2023-08-06T02:15:46;17.40;99.90
34542;DHT22;20784;51.332;12.410;2023-08-06T02:18:15;17.40;99.90
34542;DHT22;20784;51.332;12.410;2023-08-06T02:20:42;17.50;99.90
34542;DHT22;20784;51.332;12.410;2023-08-06T02:23:07;17.40;99.90
34542;DHT22;20784;51.332;12.410;2023-08-06T02:25:33;17.50;99.90
34542;DHT22;20784;51.332;12.410;2023-08-06T02:28:01;17.40;99.90
34542;DHT22;20784;51.332;12.410;2023-08-06T02:30:27;17.30;99.90
34542;DHT22;20784;51.332;12.410;2023-08-06T02:32:52;17.30;99.90
34542;DHT22;20784;51.332;12.410;2023-08-06T02:35:18;17.40;99.90
34542;DHT22;20784;51.332;12.410;2023-08-06T02:37:43;17.30;99.90
34542;DHT22;20784;51.332;12.410;2023-08-06T02:40:09;17.20;99.90
34542;DHT22;20784;51.332;12.410;2023-08-06T02:42:35;17.20;99.90
34542;DHT22;20784;51.332;12.410;2023-08-06T02:45:00;17.20;99.90
34542;DHT22;20784;51.332;12.410;2023-08-06T02:47:26;17.30;99.90
34542;DHT22;20784;51.332;12.410;2023-08-06T02:50:03;17.20;99.90
34542;DHT22;20784;51.332;12.410;2023-08-06T02:52:29;17.20;99.90
34542;DHT22;20784;51.332;12.410;2023-08-06T02:54:55;17.10;99.90
34542;DHT22;20784;51.332;12.410;2023-08-06T02:57:21;17.20;99.90
34542;DHT22;20784;51.332;12.410;2023-08-06T02:59:46;17.20;99.90
34542;DHT22;20784;51.332;12.410;2023-08-06T03:02:12;17.10;99.90
34542;DHT22;20784;51.332;12.410;2023-08-06T03:04:37;17.10;99.90
34542;DHT22;20784;51.332;12.410;2023-08-06T03:07:03;17.10;99.90
34542;DHT22;20784;51.332;12.410;2023-08-06T03:09:29;17.00;99.90
34542;DHT22;20784;51.332;12.410;2023-08-06T03:11:54;17.00;99.90
34542;DHT22;20784;51.332;12.410;2023-08-06T03:14:20;17.00;99.90
34542;DHT22;20784;51.332;12.410;2023-08-06T03:16:45;17.00;99.90
34542;DHT22;20784;51.332;12.410;2023-08-06T03:19:11;17.00;99.90
34542;DHT22;20784;51.332;12.410;2023-08-06T03:21:37;16.90;99.90
34542;DHT22;20784;51.332;12.410;2023-08-06T03:24:05;17.00;99.90
34542;DHT22;20784;51.332;12.410;2023-08-06T03:26:31;17.00;99.90
34542;DHT22;20784;51.332;12.410;2023-08-06T03:28:57;17.10;99.90
34542;DHT22;20784;51.332;12.410;2023-08-06T03:31:25;17.10;99.90
34542;DHT22;20784;51.332;12.410;2023-08-06T03:33:50;17.00;99.90
34542;DHT22;20784;51.332;12.410;2023-08-06T03:36:16;17.00;99.90
34542;DHT22;20784;51.332;12.410;2023-08-06T03:38:47;16.90;99.90
34542;DHT22;20784;51.332;12.410;2023-08-06T03:41:13;16.90;99.90
34542;DHT22;20784;51.332;12.410;2023-08-06T03:43:39;16.90;99.90
34542;DHT22;20784;51.332;12.410;2023-08-06T03:46:04;16.90;99.90
34542;DHT22;20784;51.332;12.410;2023-08-06T03:48:39;16.90;99.90
34542;DHT22;20784;51.332;12.410;2023-08-06T03:51:07;16.90;99.90
34542;DHT22;20784;51.332;12.410;2023-08-06T03:53:32;16.90;99.90
34542;DHT22;20784;51.332;12.410;2023-08-06T03:55:58;17.00;99.90
34542;DHT22;20784;51.332;12.410;2023-08-06T03:58:25;17.00;99.90
34542;DHT22;20784;51.332;12.410;2023-08-06T04:01:01;17.00;99.90
34542;DHT22;20784;51.332;12.410;2023-08-06T04:03:27;17.00;99.90
34542;DHT22;20784;51.332;12.410;2023-08-06T04:05:53;17.00;99.90
34542;DHT22;20784;51.332;12.410;2023-08-06T04:08:19;17.00;99.90
34542;DHT22;20784;51.332;12.410;2023-08-06T04:10:44;17.00;99.90
34542;DHT22;20784;51.332;12.410;2023-08-06T04:13:10;17.00;99.90
34542;DHT22;20784;51.332;12.410;2023-08-06T04:15:36;16.90;99.90
34542;DHT22;20784;51.332;12.410;2023-08-06T04:18:02;16.90;99.90
34542;DHT22;20784;51.332;12.410;2023-08-06T04:20:28;16.80;99.90
34542;DHT22;20784;51.332;12.410;2023-08-06T04:22:54;16.80;99.90
34542;DHT22;20784;51.332;12.410;2023-08-06T04:25:21;16.90;99.90
34542;DHT22;20784;51.332;12.410;2023-08-06T04:27:47;16.90;99.90
34542;DHT22;20784;51.332;12.410;2023-08-06T04:30:13;17.00;99.90
34542;DHT22;20784;51.332;12.410;2023-08-06T04:32:39;17.00;99.90
34542;DHT22;20784;51.332;12.410;2023-08-06T04:35:05;17.00;99.90
34542;DHT22;20784;51.332;12.410;2023-08-06T04:37:30;16.90;99.90
34542;DHT22;20784;51.332;12.410;2023-08-06T04:39:56;16.90;99.90
34542;DHT22;20784;51.332;12.410;2023-08-06T04:42:22;16.90;99.90
34542;DHT22;20784;51.332;12.410;2023-08-06T04:44:47;16.90;99.90
34542;DHT22;20784;51.332;12.410;2023-08-06T04:47:15;17.00;99.90
34542;DHT22;20784;51.332;12.410;2023-08-06T04:49:41;16.90;99.90
34542;DHT22;20784;51.332;12.410;2023-08-06T04:52:06;16.90;99.90
34542;DHT22;20784;51.332;12.410;2023-08-06T04:54:32;16.90;99.90
34542;DHT22;20784;51.332;12.410;2023-08-06T04:56:58;16.90;99.90
34542;DHT22;20784;51.332;12.410;2023-08-06T04:59:23;16.80;99.90
34542;DHT22;20784;51.332;12.410;2023-08-06T05:01:49;16.90;99.90
34542;DHT22;20784;51.332;12.410;2023-08-06T05:04:15;16.80;99.90
34542;DHT22;20784;51.332;12.410;2023-08-06T05:06:43;16.80;99.90
34542;DHT22;20784;51.332;12.410;2023-08-06T05:09:09;16.90;99.90
34542;DHT22;20784;51.332;12.410;2023-08-06T05:11:34;16.60;99.90
34542;DHT22;20784;51.332;12.410;2023-08-06T05:14:00;16.70;99.90
34542;DHT22;20784;51.332;12.410;2023-08-06T05:16:28;16.70;99.90
34542;DHT22;20784;51.332;12.410;2023-08-06T05:18:57;16.80;99.90
34542;DHT22;20784;51.332;12.410;2023-08-06T05:21:22;16.70;99.90
34542;DHT22;20784;51.332;12.410;2023-08-06T05:23:48;16.70;99.90
34542;DHT22;20784;51.332;12.410;2023-08-06T05:26:16;16.80;99.90
34542;DHT22;20784;51.332;12.410;2023-08-06T05:28:44;16.80;99.90
34542;DHT22;20784;51.332;12.410;2023-08-06T05:31:10;16.80;99.90
34542;DHT22;20784;51.332;12.410;2023-08-06T05:33:35;16.80;99.90
34542;DHT22;20784;51.332;12.410;2023-08-06T05:36:01;16.90;99.90
34542;DHT22;20784;51.332;12.410;2023-08-06T05:38:26;16.80;99.90
34542;DHT22;20784;51.332;12.410;2023-08-06T05:40:55;16.80;99.90
34542;DHT22;20784;51.332;12.410;2023-08-06T05:43:21;16.70;99.90
34542;DHT22;20784;51.332;12.410;2023-08-06T05:45:49;16.80;99.90
34542;DHT22;20784;51.332;12.410;2023-08-06T05:48:16;16.90;99.90
34542;DHT22;20784;51.332;12.410;2023-08-06T05:50:41;16.90;99.90
34542;DHT22;20784;51.332;12.410;2023-08-06T05:53:07;16.90;99.90
34542;DHT22;20784;51.332;12.410;2023-08-06T05:55:33;16.90;99.90
34542;DHT22;20784;51.332;12.410;2023-08-06T05:57:59;16.80;99.90
34542;DHT22;20784;51.332;12.410;2023-08-06T06:00:29;16.80;99.90
34542;DHT22;20784;51.332;12.410;2023-08-06T06:02:54;16.80;99.90
34542;DHT22;20784;51.332;12.410;2023-08-06T06:05:20;16.80;99.90
34542;DHT22;20784;51.332;12.410;2023-08-06T06:07:45;16.80;99.90
34542;DHT22;20784;51.332;12.410;2023-08-06T06:10:11;17.00;99.90
34542;DHT22;20784;51.332;12.410;2023-08-06T06:12:38;17.00;99.90
34542;DHT22;20784;51.332;12.410;2023-08-06T06:15:05;16.90;99.90
34542;DHT22;20784;51.332;12.410;2023-08-06T06:17:30;17.00;99.90
34542;DHT22;20784;51.332;12.410;2023-08-06T06:19:56;17.00;99.90
34542;DHT22;20784;51.332;12.410;2023-08-06T06:22:22;17.10;99.90
34542;DHT22;20784;51.332;12.410;2023-08-06T06:24:50;17.10;99.90
34542;DHT22;20784;51.332;12.410;2023-08-06T06:27:16;17.20;99.90
34542;DHT22;20784;51.332;12.410;2023-08-06T06:29:41;17.20;99.90
34542;DHT22;20784;51.332;12.410;2023-08-06T06:32:07;17.20;99.90
34542;DHT22;20784;51.332;12.410;2023-08-06T06:34:33;17.30;99.90
34542;DHT22;20784;51.332;12.410;2023-08-06T06:36:58;17.30;99.90
34542;DHT22;20784;51.332;12.410;2023-08-06T06:39:24;17.30;99.90
34542;DHT22;20784;51.332;12.410;2023-08-06T06:41:49;17.30;99.90
34542;DHT22;20784;51.332;12.410;2023-08-06T06:44:15;17.30;99.90
34542;DHT22;20784;51.332;12.410;2023-08-06T06:46:41;17.30;99.90
34542;DHT22;20784;51.332;12.410;2023-08-06T06:49:06;17.40;99.90
34542;DHT22;20784;51.332;12.410;2023-08-06T06:51:32;17.50;99.90
34542;DHT22;20784;51.332;12.410;2023-08-06T06:53:58;17.50;99.90
34542;DHT22;20784;51.332;12.410;2023-08-06T06:56:23;17.40;99.90
34542;DHT22;20784;51.332;12.410;2023-08-06T06:58:49;17.40;99.90
34542;DHT22;20784;51.332;12.410;2023-08-06T07:01:14;17.40;99.90
34542;DHT22;20784;51.332;12.410;2023-08-06T07:03:40;17.50;99.90
34542;DHT22;20784;51.332;12.410;2023-08-06T07:06:06;17.60;99.90
34542;DHT22;20784;51.332;12.410;2023-08-06T07:08:32;17.70;99.90
34542;DHT22;20784;51.332;12.410;2023-08-06T07:11:07;17.70;99.90
34542;DHT22;20784;51.332;12.410;2023-08-06T07:13:33;17.80;99.90
34542;DHT22;20784;51.332;12.410;2023-08-06T07:15:59;17.80;99.90
34542;DHT22;20784;51.332;12.410;2023-08-06T07:18:25;17.80;99.90
34542;DHT22;20784;51.332;12.410;2023-08-06T07:20:51;17.70;99.90
34542;DHT22;20784;51.332;12.410;2023-08-06T07:23:23;17.90;99.90
34542;DHT22;20784;51.332;12.410;2023-08-06T07:25:49;17.90;99.90
34542;DHT22;20784;51.332;12.410;2023-08-06T07:28:15;17.90;99.90
34542;DHT22;20784;51.332;12.410;2023-08-06T07:30:41;18.00;99.90
34542;DHT22;20784;51.332;12.410;2023-08-06T07:33:10;18.00;99.90
34542;DHT22;20784;51.332;12.410;2023-08-06T07:35:36;18.00;99.90
34542;DHT22;20784;51.332;12.410;2023-08-06T07:38:02;18.00;99.90
34542;DHT22;20784;51.332;12.410;2023-08-06T07:40:28;18.00;99.90
34542;DHT22;20784;51.332;12.410;2023-08-06T07:42:54;18.10;99.90
34542;DHT22;20784;51.332;12.410;2023-08-06T07:45:20;18.10;99.90
34542;DHT22;20784;51.332;12.410;2023-08-06T07:47:46;18.10;99.90
34542;DHT22;20784;51.332;12.410;2023-08-06T07:50:12;18.00;99.90
34542;DHT22;20784;51.332;12.410;2023-08-06T07:52:38;18.10;99.90
34542;DHT22;20784;51.332;12.410;2023-08-06T07:55:04;18.20;99.90
34542;DHT22;20784;51.332;12.410;2023-08-06T07:57:32;18.10;99.90
34542;DHT22;20784;51.332;12.410;2023-08-06T07:59:59;18.10;99.90
34542;DHT22;20784;51.332;12.410;2023-08-06T08:02:27;18.10;99.90
34542;DHT22;20784;51.332;12.410;2023-08-06T08:04:55;18.20;99.90
34542;DHT22;20784;51.332;12.410;2023-08-06T08:07:21;18.20;99.90
34542;DHT22;20784;51.332;12.410;2023-08-06T08:09:47;18.30;99.90
34542;DHT22;20784;51.332;12.410;2023-08-06T08:12:15;18.30;99.90
34542;DHT22;20784;51.332;12.410;2023-08-06T08:14:41;18.40;99.90
34542;DHT22;20784;51.332;12.410;2023-08-06T08:17:07;18.30;99.90
34542;DHT22;20784;51.332;12.410;2023-08-06T08:19:32;18.40;99.90
34542;DHT22;20784;51.332;12.410;2023-08-06T08:21:58;18.50;99.90
34542;DHT22;20784;51.332;12.410;2023-08-06T08:24:24;18.50;99.90
34542;DHT22;20784;51.332;12.410;2023-08-06T08:26:50;18.30;99.90
34542;DHT22;20784;51.332;12.410;2023-08-06T08:29:16;18.40;99.90
34542;DHT22;20784;51.332;12.410;2023-08-06T08:31:42;18.60;99.90
34542;DHT22;20784;51.332;12.410;2023-08-06T08:34:08;18.70;99.90
34542;DHT22;20784;51.332;12.410;2023-08-06T08:36:34;18.80;99.90
34542;DHT22;20784;51.332;12.410;2023-08-06T08:39:00;18.90;99.90
34542;DHT22;20784;51.332;12.410;2023-08-06T08:41:28;19.00;99.90
34542;DHT22;20784;51.332;12.410;2023-08-06T08:43:55;19.10;99.90
34542;DHT22;20784;51.332;12.410;2023-08-06T08:46:21;19.30;99.90
34542;DHT22;20784;51.332;12.410;2023-08-06T08:48:47;19.50;99.90
34542;DHT22;20784;51.332;12.410;2023-08-06T08:51:18;19.70;99.90
34542;DHT22;20784;51.332;12.410;2023-08-06T08:53:45;19.90;99.90
34542;DHT22;20784;51.332;12.410;2023-08-06T08:56:13;20.10;99.90
34542;DHT22;20784;51.332;12.410;2023-08-06T08:58:40;20.30;99.90
34542;DHT22;20784;51.332;12.410;2023-08-06T09:01:06;20.30;99.90
34542;DHT22;20784;51.332;12.410;2023-08-06T09:03:32;20.60;99.90
34542;DHT22;20784;51.332;12.410;2023-08-06T09:06:00;20.70;99.90
34542;DHT22;20784;51.332;12.410;2023-08-06T09:08:31;20.90;99.90
34542;DHT22;20784;51.332;12.410;2023-08-06T09:11:00;21.00;99.90
34542;DHT22;20784;51.332;12.410;2023-08-06T09:13:27;21.10;99.90
34542;DHT22;20784;51.332;12.410;2023-08-06T09:15:52;21.30;99.90
34542;DHT22;20784;51.332;12.410;2023-08-06T09:18:25;21.40;99.90
34542;DHT22;20784;51.332;12.410;2023-08-06T09:20:53;21.60;99.90
34542;DHT22;20784;51.332;12.410;2023-08-06T09:23:18;21.60;99.90
34542;DHT22;20784;51.332;12.410;2023-08-06T09:25:45;21.60;99.90
34542;DHT22;20784;51.332;12.410;2023-08-06T09:28:11;21.50;99.90
34542;DHT22;20784;51.332;12.410;2023-08-06T09:30:37;21.70;99.90
34542;DHT22;20784;51.332;12.410;2023-08-06T09:33:07;21.90;99.90
34542;DHT22;20784;51.332;12.410;2023-08-06T09:35:33;22.10;99.90
34542;DHT22;20784;51.332;12.410;2023-08-06T09:38:09;22.20;99.90
34542;DHT22;20784;51.332;12.410;2023-08-06T09:40:36;22.40;99.90
34542;DHT22;20784;51.332;12.410;2023-08-06T09:43:03;22.20;99.90
34542;DHT22;20784;51.332;12.410;2023-08-06T09:45:36;22.30;99.90
34542;DHT22;20784;51.332;12.410;2023-08-06T09:48:07;22.20;99.90
34542;DHT22;20784;51.332;12.410;2023-08-06T09:50:37;21.90;99.90
34542;DHT22;20784;51.332;12.410;2023-08-06T09:53:07;21.40;99.90
34542;DHT22;20784;51.332;12.410;2023-08-06T09:55:34;21.50;99.90
34542;DHT22;20784;51.332;12.410;2023-08-06T09:58:00;21.50;99.90
34542;DHT22;20784;51.332;12.410;2023-08-06T10:00:26;21.40;99.90
34542;DHT22;20784;51.332;12.410;2023-08-06T10:02:59;21.50;99.90
34542;DHT22;20784;51.332;12.410;2023-08-06T10:05:26;21.40;99.90
34542;DHT22;20784;51.332;12.410;2023-08-06T10:07:52;21.50;99.90
34542;DHT22;20784;51.332;12.410;2023-08-06T10:10:19;21.50;99.90
34542;DHT22;20784;51.332;12.410;2023-08-06T10:12:50;21.60;99.90
34542;DHT22;20784;51.332;12.410;2023-08-06T10:15:22;21.80;99.90
34542;DHT22;20784;51.332;12.410;2023-08-06T10:17:52;22.00;99.90
34542;DHT22;20784;51.332;12.410;2023-08-06T10:20:18;22.10;99.90
34542;DHT22;20784;51.332;12.410;2023-08-06T10:22:45;22.30;99.90
34542;DHT22;20784;51.332;12.410;2023-08-06T10:25:11;22.50;99.90
34542;DHT22;20784;51.332;12.410;2023-08-06T10:27:53;22.90;99.90
34542;DHT22;20784;51.332;12.410;2023-08-06T10:33:00;23.00;99.90
34542;DHT22;20784;51.332;12.410;2023-08-06T10:40:36;23.40;99.90
34542;DHT22;20784;51.332;12.410;2023-08-06T10:43:04;23.70;99.90
34542;DHT22;20784;51.332;12.410;2023-08-06T10:45:30;23.90;99.90
34542;DHT22;20784;51.332;12.410;2023-08-06T10:47:59;23.90;99.90
34542;DHT22;20784;51.332;12.410;2023-08-06T10:50:25;24.10;99.90
34542;DHT22;20784;51.332;12.410;2023-08-06T10:52:51;24.00;99.90
34542;DHT22;20784;51.332;12.410;2023-08-06T10:55:24;23.90;99.90
34542;DHT22;20784;51.332;12.410;2023-08-06T10:57:51;24.10;99.90
34542;DHT22;20784;51.332;12.410;2023-08-06T11:00:16;24.10;99.90
34542;DHT22;20784;51.332;12.410;2023-08-06T11:02:42;24.20;99.90
34542;DHT22;20784;51.332;12.410;2023-08-06T11:05:09;24.40;99.90
34542;DHT22;20784;51.332;12.410;2023-08-06T11:07:36;24.60;99.90
34542;DHT22;20784;51.332;12.410;2023-08-06T11:12:29;24.70;99.90
34542;DHT22;20784;51.332;12.410;2023-08-06T11:14:54;24.90;99.90
34542;DHT22;20784;51.332;12.410;2023-08-06T11:17:21;24.80;99.90
34542;DHT22;20784;51.332;12.410;2023-08-06T11:19:47;24.70;99.90
34542;DHT22;20784;51.332;12.410;2023-08-06T11:22:14;24.70;99.90
34542;DHT22;20784;51.332;12.410;2023-08-06T11:24:40;24.80;99.90
34542;DHT22;20784;51.332;12.410;2023-08-06T11:27:15;24.50;99.90
34542;DHT22;20784;51.332;12.410;2023-08-06T11:29:42;24.50;99.90
34542;DHT22;20784;51.332;12.410;2023-08-06T11:32:08;24.40;99.90
34542;DHT22;20784;51.332;12.410;2023-08-06T11:34:35;24.50;99.90
34542;DHT22;20784;51.332;12.410;2023-08-06T11:37:03;24.80;99.90
34542;DHT22;20784;51.332;12.410;2023-08-06T11:39:31;25.00;99.90
34542;DHT22;20784;51.332;12.410;2023-08-06T11:41:57;25.10;99.90
34542;DHT22;20784;51.332;12.410;2023-08-06T11:44:25;25.30;99.90
34542;DHT22;20784;51.332;12.410;2023-08-06T11:46:57;25.30;99.90
34542;DHT22;20784;51.332;12.410;2023-08-06T11:52:18;24.80;99.90
34542;DHT22;20784;51.332;12.410;2023-08-06T11:57:44;24.60;99.90
34542;DHT22;20784;51.332;12.410;2023-08-06T12:00:11;24.50;99.90
34542;DHT22;20784;51.332;12.410;2023-08-06T12:02:42;24.50;99.90
34542;DHT22;20784;51.332;12.410;2023-08-06T12:07:40;24.40;99.90
34542;DHT22;20784;51.332;12.410;2023-08-06T12:10:07;24.20;99.90
34542;DHT22;20784;51.332;12.410;2023-08-06T12:12:34;24.10;99.90
34542;DHT22;20784;51.332;12.410;2023-08-06T12:15:00;23.80;99.90
34542;DHT22;20784;51.332;12.410;2023-08-06T12:17:26;23.90;99.90
34542;DHT22;20784;51.332;12.410;2023-08-06T12:19:52;24.20;99.90
34542;DHT22;20784;51.332;12.410;2023-08-06T12:22:18;24.50;99.90
34542;DHT22;20784;51.332;12.410;2023-08-06T12:24:46;24.50;99.90
34542;DHT22;20784;51.332;12.410;2023-08-06T12:27:12;24.50;99.90
34542;DHT22;20784;51.332;12.410;2023-08-06T12:29:41;24.60;99.90
34542;DHT22;20784;51.332;12.410;2023-08-06T12:32:08;24.50;99.90
34542;DHT22;20784;51.332;12.410;2023-08-06T12:34:34;24.70;99.90
34542;DHT22;20784;51.332;12.410;2023-08-06T12:36:59;24.70;99.90
34542;DHT22;20784;51.332;12.410;2023-08-06T12:39:25;24.90;99.90
34542;DHT22;20784;51.332;12.410;2023-08-06T12:41:54;25.30;99.90
34542;DHT22;20784;51.332;12.410;2023-08-06T12:44:19;25.40;99.90
34542;DHT22;20784;51.332;12.410;2023-08-06T12:46:47;25.60;99.90
34542;DHT22;20784;51.332;12.410;2023-08-06T12:49:13;25.40;99.90
34542;DHT22;20784;51.332;12.410;2023-08-06T12:51:39;25.40;99.90
34542;DHT22;20784;51.332;12.410;2023-08-06T12:54:04;25.30;99.90
34542;DHT22;20784;51.332;12.410;2023-08-06T12:56:30;25.10;99.90
34542;DHT22;20784;51.332;12.410;2023-08-06T12:58:58;24.90;99.90
34542;DHT22;20784;51.332;12.410;2023-08-06T13:01:24;24.90;99.90
34542;DHT22;20784;51.332;12.410;2023-08-06T13:03:49;24.80;99.90
34542;DHT22;20784;51.332;12.410;2023-08-06T13:06:18;24.70;99.90
34542;DHT22;20784;51.332;12.410;2023-08-06T13:08:43;24.70;99.90
34542;DHT22;20784;51.332;12.410;2023-08-06T13:11:09;24.70;99.90
34542;DHT22;20784;51.332;12.410;2023-08-06T13:13:35;24.70;99.90
34542;DHT22;20784;51.332;12.410;2023-08-06T13:16:00;24.60;99.90
34542;DHT22;20784;51.332;12.410;2023-08-06T13:18:28;24.60;99.90
34542;DHT22;20784;51.332;12.410;2023-08-06T13:20:55;24.50;99.90
34542;DHT22;20784;51.332;12.410;2023-08-06T13:23:21;24.40;99.90
34542;DHT22;20784;51.332;12.410;2023-08-06T13:25:49;24.20;99.90
34542;DHT22;20784;51.332;12.410;2023-08-06T13:28:14;24.00;99.90
34542;DHT22;20784;51.332;12.410;2023-08-06T13:30:40;23.80;99.90
34542;DHT22;20784;51.332;12.410;2023-08-06T13:33:09;23.50;99.90
34542;DHT22;20784;51.332;12.410;2023-08-06T13:35:35;23.40;99.90
34542;DHT22;20784;51.332;12.410;2023-08-06T13:38:01;23.40;99.90
34542;DHT22;20784;51.332;12.410;2023-08-06T13:40:33;23.40;99.90
34542;DHT22;20784;51.332;12.410;2023-08-06T13:43:00;23.50;99.90
34542;DHT22;20784;51.332;12.410;2023-08-06T13:45:25;23.60;99.90
34542;DHT22;20784;51.332;12.410;2023-08-06T13:47:51;23.60;99.90
34542;DHT22;20784;51.332;12.410;2023-08-06T13:50:16;23.60;99.90
34542;DHT22;20784;51.332;12.410;2023-08-06T13:52:42;23.70;99.90
34542;DHT22;20784;51.332;12.410;2023-08-06T13:55:08;23.90;99.90
34542;DHT22;20784;51.332;12.410;2023-08-06T13:57:34;24.30;99.90
34542;DHT22;20784;51.332;12.410;2023-08-06T14:00:00;24.70;99.90
34542;DHT22;20784;51.332;12.410;2023-08-06T14:02:26;24.90;99.90
34542;DHT22;20784;51.332;12.410;2023-08-06T14:04:52;25.10;99.90
34542;DHT22;20784;51.332;12.410;2023-08-06T14:07:18;25.30;99.90
34542;DHT22;20784;51.332;12.410;2023-08-06T14:09:44;25.60;99.90
34542;DHT22;20784;51.332;12.410;2023-08-06T14:12:09;25.90;99.90
34542;DHT22;20784;51.332;12.410;2023-08-06T14:14:35;26.10;99.90
34542;DHT22;20784;51.332;12.410;2023-08-06T14:17:01;26.10;99.90
34542;DHT22;20784;51.332;12.410;2023-08-06T14:19:27;26.20;99.90
34542;DHT22;20784;51.332;12.410;2023-08-06T14:21:52;26.20;99.90
34542;DHT22;20784;51.332;12.410;2023-08-06T14:24:18;26.10;99.90
34542;DHT22;20784;51.332;12.410;2023-08-06T14:26:44;26.10;99.90
34542;DHT22;20784;51.332;12.410;2023-08-06T14:29:13;26.00;99.90
34542;DHT22;20784;51.332;12.410;2023-08-06T14:31:39;25.90;99.90
34542;DHT22;20784;51.332;12.410;2023-08-06T14:34:05;25.80;99.90
34542;DHT22;20784;51.332;12.410;2023-08-06T14:36:33;25.50;99.90
34542;DHT22;20784;51.332;12.410;2023-08-06T14:39:01;25.40;99.90
34542;DHT22;20784;51.332;12.410;2023-08-06T14:41:27;25.20;99.90
34542;DHT22;20784;51.332;12.410;2023-08-06T14:43:53;25.10;99.90
34542;DHT22;20784;51.332;12.410;2023-08-06T14:46:19;25.00;99.90
34542;DHT22;20784;51.332;12.410;2023-08-06T14:48:45;24.90;99.90
34542;DHT22;20784;51.332;12.410;2023-08-06T14:51:10;25.10;99.90
34542;DHT22;20784;51.332;12.410;2023-08-06T14:53:36;25.00;99.90
34542;DHT22;20784;51.332;12.410;2023-08-06T14:56:01;25.00;99.90
34542;DHT22;20784;51.332;12.410;2023-08-06T14:58:27;24.70;99.90
34542;DHT22;20784;51.332;12.410;2023-08-06T15:00:53;24.70;99.90
34542;DHT22;20784;51.332;12.410;2023-08-06T15:03:18;24.70;99.90
34542;DHT22;20784;51.332;12.410;2023-08-06T15:05:46;24.60;99.90
34542;DHT22;20784;51.332;12.410;2023-08-06T15:08:12;24.40;99.90
34542;DHT22;20784;51.332;12.410;2023-08-06T15:10:37;24.30;99.90
34542;DHT22;20784;51.332;12.410;2023-08-06T15:13:06;24.20;99.90
34542;DHT22;20784;51.332;12.410;2023-08-06T15:15:32;24.20;99.90
34542;DHT22;20784;51.332;12.410;2023-08-06T15:17:58;24.20;99.90
34542;DHT22;20784;51.332;12.410;2023-08-06T15:20:24;24.20;99.90
34542;DHT22;20784;51.332;12.410;2023-08-06T15:22:49;24.20;99.90
34542;DHT22;20784;51.332;12.410;2023-08-06T15:25:15;24.20;99.90
34542;DHT22;20784;51.332;12.410;2023-08-06T15:27:41;24.30;99.90
34542;DHT22;20784;51.332;12.410;2023-08-06T15:30:07;24.40;99.90
34542;DHT22;20784;51.332;12.410;2023-08-06T15:32:33;24.30;99.90